Time;durP1;ratioP1;P1;durP2;ratioP2;P2;SDS_P1;SDS_P2;PMS_P1;PMS_P2;Temp;Humidity;BMP_temperature;BMP_pressure;BME280_temperature;BME280_humidity;BME280_pressure;Samples;Min_cycle;Max_cycle;Signal;HPM_P1;HPM_P2
2021/05/18 00:00:32;;;;;;;;;;;;;;;10.41;100.00;92462.19;5112290;28;19924;-85
2021/05/18 00:02:59;;;;;;;;;;;;;;;10.31;100.00;92456.84;5112066;28;19923;-85
2021/05/18 00:05:26;;;;;;;;;;;;;;;10.27;100.00;92456.53;5111907;28;19920;-86
2021/05/18 00:07:56;;;;;;;;;;;;;;;10.22;100.00;92451.28;5111514;28;19931;-84
2021/05/18 00:13:07;;;;;;;;;;;;;;;10.14;100.00;92469.63;5111989;28;19929;-85
2021/05/18 00:15:34;;;;;;;;;;;;;;;10.11;100.00;92467.50;5112063;28;19924;-88
2021/05/18 00:18:01;;;;;;;;;;;;;;;10.10;100.00;92473.63;5111927;28;19930;-84
2021/05/18 00:20:28;;;;;;;;;;;;;;;10.03;100.00;92473.72;5111801;28;19920;-85
2021/05/18 00:22:54;;;;;;;;;;;;;;;10.02;100.00;92488.38;5112115;28;19924;-85
2021/05/18 00:25:20;;;;;;;;;;;;;;;10.00;100.00;92497.28;5111355;28;20458;-86
2021/05/18 00:27:46;;;;;;;;;;;;;;;9.82;100.00;92500.72;5111871;28;19919;-86
2021/05/18 00:30:14;;;;;;;;;;;;;;;9.76;100.00;92517.78;5111507;28;20447;-87
2021/05/18 00:32:40;;;;;;;;;;;;;;;9.60;100.00;92511.53;5111284;28;19929;-84
2021/05/18 00:35:08;;;;;;;;;;;;;;;9.53;100.00;92508.28;5111358;28;19920;-84
2021/05/18 00:37:34;;;;;;;;;;;;;;;9.62;100.00;92530.81;5111739;28;20325;-85
2021/05/18 00:40:00;;;;;;;;;;;;;;;9.81;100.00;92540.22;5111258;28;19920;-85
2021/05/18 00:42:26;;;;;;;;;;;;;;;9.70;100.00;92523.78;5111341;28;19930;-84
2021/05/18 00:44:53;;;;;;;;;;;;;;;9.66;100.00;92543.97;5111040;28;20384;-85
2021/05/18 00:47:20;;;;;;;;;;;;;;;9.79;100.00;92573.78;5111324;28;19929;-85
2021/05/18 00:49:46;;;;;;;;;;;;;;;9.93;100.00;92578.69;5111490;28;19930;-85
2021/05/18 00:52:15;;;;;;;;;;;;;;;10.03;100.00;92555.84;5111145;28;19919;-84
2021/05/18 00:54:44;;;;;;;;;;;;;;;10.12;100.00;92525.50;5110797;28;19927;-83
2021/05/18 00:59:55;;;;;;;;;;;;;;;10.18;100.00;92527.16;5111051;28;19927;-85
2021/05/18 01:02:21;;;;;;;;;;;;;;;10.27;100.00;92512.22;5110745;28;20374;-83
2021/05/18 01:04:47;;;;;;;;;;;;;;;10.33;100.00;92521.59;5111034;28;19972;-84
2021/05/18 01:07:14;;;;;;;;;;;;;;;10.37;100.00;92521.94;5110829;28;19920;-84
2021/05/18 01:09:40;;;;;;;;;;;;;;;10.44;100.00;92514.91;5110885;28;20314;-84
2021/05/18 01:12:07;;;;;;;;;;;;;;;10.40;100.00;92506.06;5110764;28;20482;-84
2021/05/18 01:14:33;;;;;;;;;;;;;;;10.39;100.00;92501.94;5110923;28;19928;-84
2021/05/18 01:16:59;;;;;;;;;;;;;;;10.40;100.00;92513.75;5110364;28;19924;-87
2021/05/18 01:19:26;;;;;;;;;;;;;;;10.40;100.00;92501.72;5109633;28;19933;-86
2021/05/18 01:21:54;;;;;;;;;;;;;;;10.38;100.00;92508.84;5110800;28;19953;-86
2021/05/18 01:24:20;;;;;;;;;;;;;;;10.37;100.00;92516.78;5110593;28;19924;-85
2021/05/18 01:26:47;;;;;;;;;;;;;;;10.38;100.00;92524.25;5110436;28;19926;-85
2021/05/18 01:29:14;;;;;;;;;;;;;;;10.43;100.00;92531.31;5110833;28;19923;-85
2021/05/18 01:31:41;;;;;;;;;;;;;;;10.37;100.00;92525.25;5110626;28;19919;-85
2021/05/18 01:34:07;;;;;;;;;;;;;;;10.35;100.00;92521.34;5110712;28;19962;-85
2021/05/18 01:36:34;;;;;;;;;;;;;;;10.34;100.00;92517.22;5110591;28;19924;-85
2021/05/18 01:39:09;;;;;;;;;;;;;;;10.27;100.00;92522.47;5110420;28;19923;-85
2021/05/18 01:44:19;;;;;;;;;;;;;;;10.22;100.00;92543.69;5110327;28;19946;-83
2021/05/18 01:46:46;;;;;;;;;;;;;;;10.19;100.00;92551.06;5109964;28;20378;-85
2021/05/18 01:49:13;;;;;;;;;;;;;;;10.10;100.00;92548.03;5110066;28;19927;-83
2021/05/18 01:51:40;;;;;;;;;;;;;;;10.08;100.00;92561.09;5110308;28;20272;-86
2021/05/18 01:54:08;;;;;;;;;;;;;;;10.03;100.00;92559.19;5110077;28;19920;-84
2021/05/18 01:56:44;;;;;;;;;;;;;;;9.97;100.00;92551.59;5110390;28;20350;-82
2021/05/18 01:59:12;;;;;;;;;;;;;;;9.92;100.00;92566.88;5110309;28;20444;-82
2021/05/18 02:01:38;;;;;;;;;;;;;;;9.92;100.00;92570.22;5110288;28;19924;-83
2021/05/18 02:04:05;;;;;;;;;;;;;;;9.89;100.00;92576.59;5110279;28;19919;-83
2021/05/18 02:06:31;;;;;;;;;;;;;;;9.86;100.00;92576.25;5110285;28;20324;-83
2021/05/18 02:08:57;;;;;;;;;;;;;;;9.78;100.00;92567.09;5109869;28;19919;-83
2021/05/18 02:11:24;;;;;;;;;;;;;;;9.72;100.00;92573.09;5109802;28;20348;-83
2021/05/18 02:13:53;;;;;;;;;;;;;;;9.72;100.00;92579.00;5110212;28;19919;-87
2021/05/18 02:16:23;;;;;;;;;;;;;;;9.71;100.00;92585.13;5110033;28;19923;-87
2021/05/18 02:19:14;;;;;;;;;;;;;;;9.71;100.00;92580.00;5110056;28;19930;-86
2021/05/18 02:21:51;;;;;;;;;;;;;;;9.72;100.00;92581.56;5109789;28;19998;-86
2021/05/18 02:24:42;;;;;;;;;;;;;;;9.75;100.00;92595.72;5110023;28;19920;-87
2021/05/18 02:27:09;;;;;;;;;;;;;;;9.79;100.00;92593.50;5109742;28;19924;-86
2021/05/18 02:29:35;;;;;;;;;;;;;;;9.82;100.00;92593.84;5110073;28;19998;-87
2021/05/18 02:32:01;;;;;;;;;;;;;;;9.84;100.00;92599.53;5112833;28;19931;-86
2021/05/18 02:34:27;;;;;;;;;;;;;;;9.88;100.00;92602.44;5114162;28;19920;-87
2021/05/18 02:36:53;;;;;;;;;;;;;;;9.91;100.00;92601.22;5113887;28;19920;-86
2021/05/18 02:39:20;;;;;;;;;;;;;;;9.95;100.00;92612.63;5113639;28;19970;-87
2021/05/18 02:41:46;;;;;;;;;;;;;;;10.06;100.00;92611.88;5113676;28;19924;-86
2021/05/18 02:44:18;;;;;;;;;;;;;;;10.04;100.00;92616.41;5113406;28;19920;-83
2021/05/18 02:49:28;;;;;;;;;;;;;;;10.07;100.00;92617.75;5113523;28;19931;-84
2021/05/18 02:51:54;;;;;;;;;;;;;;;10.07;100.00;92618.56;5113482;28;19924;-85
2021/05/18 02:54:23;;;;;;;;;;;;;;;10.05;100.00;92620.56;5113198;28;19919;-85
2021/05/18 02:56:53;;;;;;;;;;;;;;;10.06;100.00;92613.63;5113604;28;19923;-85
2021/05/18 02:59:20;;;;;;;;;;;;;;;10.05;100.00;92615.44;5113442;28;20357;-83
2021/05/18 03:01:47;;;;;;;;;;;;;;;10.03;100.00;92618.22;5113559;28;20321;-83
2021/05/18 03:04:13;;;;;;;;;;;;;;;10.03;100.00;92620.78;5113470;28;19920;-83
2021/05/18 03:06:40;;;;;;;;;;;;;;;10.05;100.00;92615.44;5113315;28;19946;-84
2021/05/18 03:09:09;;;;;;;;;;;;;;;10.06;100.00;92603.38;5113002;28;19920;-84
2021/05/18 03:11:36;;;;;;;;;;;;;;;10.05;100.00;92607.75;5113001;28;20302;-84
2021/05/18 03:14:03;;;;;;;;;;;;;;;10.09;100.00;92616.53;5113129;28;19919;-83
2021/05/18 03:16:30;;;;;;;;;;;;;;;10.14;100.00;92618.47;5113247;28;19969;-83
2021/05/18 03:18:56;;;;;;;;;;;;;;;10.18;100.00;92622.13;5113278;28;19924;-83
2021/05/18 03:21:22;;;;;;;;;;;;;;;10.17;100.00;92615.44;5113072;28;19924;-83
2021/05/18 03:23:48;;;;;;;;;;;;;;;10.12;100.00;92613.53;5112650;28;19927;-83
2021/05/18 03:26:14;;;;;;;;;;;;;;;10.12;100.00;92612.75;5113077;28;19926;-83
2021/05/18 03:28:40;;;;;;;;;;;;;;;10.10;100.00;92610.41;5112862;28;19923;-82
2021/05/18 03:34:25;;;;;;;;;;;;;;;10.07;100.00;92613.41;5113082;28;19920;-83
2021/05/18 03:36:41;;;;;;;;;;;;;;;10.08;100.00;92619.31;5112710;28;20329;-84
2021/05/18 03:39:07;;;;;;;;;;;;;;;10.05;100.00;92622.34;5112579;28;19920;-84
2021/05/18 03:41:45;;;;;;;;;;;;;;;10.05;100.00;92627.47;5112724;28;19919;-84
2021/05/18 03:44:54;;;;;;;;;;;;;;;10.02;100.00;92621.00;5111614;28;20408;-84
2021/05/18 03:52:56;;;;;;;;;;;;;;;9.91;100.00;92622.56;5113190;28;20390;-84
2021/05/18 04:03:51;;;;;;;;;;;;;;;9.95;100.00;92628.00;5069067;28;20399;-84
2021/05/18 04:11:53;;;;;;;;;;;;;;;10.02;100.00;92632.06;5091707;28;19990;-85
2021/05/18 04:17:00;;;;;;;;;;;;;;;10.22;100.00;92637.88;5089881;28;19924;-84
2021/05/18 04:19:34;;;;;;;;;;;;;;;10.37;100.00;92643.34;5103890;28;20391;-85
2021/05/18 04:22:20;;;;;;;;;;;;;;;10.48;100.00;92643.63;5111597;28;19970;-84
2021/05/18 04:25:09;;;;;;;;;;;;;;;10.58;100.00;92643.84;5111414;28;19967;-82
2021/05/18 04:38:47;;;;;;;;;;;;;;;11.15;100.00;92659.69;5111358;28;20010;-86
2021/05/18 04:41:29;;;;;;;;;;;;;;;11.20;100.00;92657.97;5111400;28;19923;-84
2021/05/18 04:50:23;;;;;;;;;;;;;;;11.50;100.00;92669.09;5068124;28;19974;-83
2021/05/18 04:52:56;;;;;;;;;;;;;;;11.60;100.00;92673.63;5068138;28;20335;-83
2021/05/18 05:00:51;;;;;;;;;;;;;;;11.57;100.00;92681.81;5111156;28;19941;-83
2021/05/18 05:06:22;;;;;;;;;;;;;;;11.86;100.00;92684.41;5111122;28;19985;-82
2021/05/18 05:08:53;;;;;;;;;;;;;;;11.81;100.00;92681.75;5111133;28;19926;-83
2021/05/18 05:14:23;;;;;;;;;;;;;;;11.71;100.00;92688.25;5071168;28;20055;-83
2021/05/18 05:16:50;;;;;;;;;;;;;;;11.87;100.00;92686.75;5110819;28;20018;-88
2021/05/18 05:19:20;;;;;;;;;;;;;;;11.78;100.00;92693.28;5110879;28;20378;-88
2021/05/18 05:21:46;;;;;;;;;;;;;;;11.81;100.00;92697.19;5110481;28;20370;-85
2021/05/18 05:24:13;;;;;;;;;;;;;;;11.85;100.00;92698.28;5110706;28;19924;-85
2021/05/18 05:26:41;;;;;;;;;;;;;;;12.10;100.00;92703.13;5110354;28;19924;-86
2021/05/18 05:29:07;;;;;;;;;;;;;;;12.12;100.00;92701.09;5110910;28;19926;-83
2021/05/18 05:31:34;;;;;;;;;;;;;;;11.91;100.00;92715.38;5110513;28;20354;-83
2021/05/18 05:34:00;;;;;;;;;;;;;;;11.73;100.00;92717.13;5110657;28;19927;-85
2021/05/18 05:36:26;;;;;;;;;;;;;;;11.70;100.00;92712.41;5110409;28;19926;-85
2021/05/18 05:38:58;;;;;;;;;;;;;;;11.54;100.00;92724.22;5110400;28;19924;-85
2021/05/18 05:41:25;;;;;;;;;;;;;;;11.45;100.00;92721.22;5110459;28;19919;-85
2021/05/18 05:43:51;;;;;;;;;;;;;;;10.88;100.00;92724.38;5107517;28;20313;-83
2021/05/18 05:46:18;;;;;;;;;;;;;;;10.97;100.00;92725.59;5108619;28;20408;-85
2021/05/18 05:48:44;;;;;;;;;;;;;;;10.89;100.00;92724.16;5109907;28;19964;-83
2021/05/18 05:51:10;;;;;;;;;;;;;;;10.95;100.00;92722.47;5110264;28;19920;-83
2021/05/18 05:53:36;;;;;;;;;;;;;;;10.90;100.00;92733.44;5110196;28;19924;-82
2021/05/18 05:56:02;;;;;;;;;;;;;;;11.13;100.00;92739.59;5110077;28;19920;-83
2021/05/18 05:58:28;;;;;;;;;;;;;;;11.18;100.00;92734.56;5110232;28;19981;-82
2021/05/18 06:00:56;;;;;;;;;;;;;;;11.40;100.00;92743.47;5110316;28;19919;-82
2021/05/18 06:03:23;;;;;;;;;;;;;;;11.32;100.00;92755.66;5110003;28;20045;-83
2021/05/18 06:05:49;;;;;;;;;;;;;;;11.41;100.00;92763.03;5112919;28;19920;-82
2021/05/18 06:08:15;;;;;;;;;;;;;;;11.73;100.00;92760.88;5117004;28;19919;-82
2021/05/18 06:10:43;;;;;;;;;;;;;;;11.71;100.00;92768.00;5116564;28;20383;-83
2021/05/18 06:35:40;;;;;;;;;;;;;;;11.77;100.00;92782.53;5074426;28;20337;-84
2021/05/18 06:41:18;;;;;;;;;;;;;;;12.09;100.00;92790.88;5033355;28;19925;-84
2021/05/18 06:46:36;;;;;;;;;;;;;;;12.18;100.00;92792.09;5116442;28;19968;-89
2021/05/18 06:49:03;;;;;;;;;;;;;;;12.05;100.00;92806.00;5116163;28;20346;-85
2021/05/18 06:51:29;;;;;;;;;;;;;;;12.28;100.00;92789.69;5116236;28;19935;-84
2021/05/18 06:53:55;;;;;;;;;;;;;;;12.28;100.00;92799.22;5116508;28;19920;-85
2021/05/18 06:56:21;;;;;;;;;;;;;;;12.22;100.00;92800.13;5116330;28;19919;-83
2021/05/18 07:01:30;;;;;;;;;;;;;;;12.81;100.00;92812.75;5094639;28;19947;-84
2021/05/18 07:04:00;;;;;;;;;;;;;;;13.03;100.00;92812.06;5116434;28;19919;-83
2021/05/18 07:06:39;;;;;;;;;;;;;;;12.69;100.00;92817.94;5116529;28;20013;-83
2021/05/18 07:09:06;;;;;;;;;;;;;;;12.83;96.45;92818.44;5116449;28;19930;-83
2021/05/18 07:11:32;;;;;;;;;;;;;;;12.99;98.23;92815.31;5116427;28;19923;-84
2021/05/18 07:13:58;;;;;;;;;;;;;;;13.22;99.44;92815.19;5116266;28;19924;-85
2021/05/18 07:16:25;;;;;;;;;;;;;;;13.59;97.33;92813.13;5112179;28;19924;-83
2021/05/18 07:18:51;;;;;;;;;;;;;;;14.06;91.66;92814.47;5111340;28;19920;-84
2021/05/18 07:21:17;;;;;;;;;;;;;;;14.25;90.94;92814.94;5112518;28;19965;-83
2021/05/18 07:23:44;;;;;;;;;;;;;;;14.62;90.91;92803.16;5112632;28;19923;-83
2021/05/18 07:26:10;;;;;;;;;;;;;;;14.67;88.34;92800.63;5112995;28;19919;-85
2021/05/18 07:28:36;;;;;;;;;;;;;;;14.52;85.33;92810.81;5112757;28;19923;-84
2021/05/18 07:31:03;;;;;;;;;;;;;;;14.62;88.98;92802.41;5112592;28;20394;-81
2021/05/18 07:33:30;;;;;;;;;;;;;;;14.76;86.14;92815.75;5112951;28;19984;-82
2021/05/18 07:35:57;;;;;;;;;;;;;;;14.30;85.83;92825.34;5112881;28;19920;-84
2021/05/18 07:38:23;;;;;;;;;;;;;;;14.18;87.04;92827.28;5112456;28;19923;-83
2021/05/18 07:40:50;;;;;;;;;;;;;;;14.00;86.16;92828.34;5112419;28;19983;-82
2021/05/18 07:43:17;;;;;;;;;;;;;;;14.11;86.16;92829.25;5120736;27;19923;-82
2021/05/18 07:45:47;;;;;;;;;;;;;;;14.62;90.65;92818.69;5133268;27;19919;-83
2021/05/18 07:48:18;;;;;;;;;;;;;;;14.94;84.14;92827.50;5133104;27;19968;-83
2021/05/18 07:50:47;;;;;;;;;;;;;;;15.19;80.06;92829.53;5132734;27;19919;-82
2021/05/18 08:06:57;;;;;;;;;;;;;;;15.38;78.47;92836.91;5132553;27;19930;-83
2021/05/18 08:09:25;;;;;;;;;;;;;;;15.61;73.01;92835.75;5132508;27;19919;-85
2021/05/18 08:11:52;;;;;;;;;;;;;;;14.86;75.53;92835.72;5132553;27;19930;-83
2021/05/18 08:14:21;;;;;;;;;;;;;;;15.01;77.65;92838.47;5132328;27;20371;-82
2021/05/18 10:22:45;;;;;;;;;;;;;;;18.74;55.38;92831.44;5131750;28;19963;-83
2021/05/18 10:35:52;;;;;;;;;;;;;;;19.22;49.89;92841.28;5130524;28;19922;-86
2021/05/18 10:38:19;;;;;;;;;;;;;;;19.28;50.48;92839.41;5130005;28;20370;-84
2021/05/18 10:40:46;;;;;;;;;;;;;;;19.33;51.31;92837.56;5130424;28;19927;-83
2021/05/18 10:43:28;;;;;;;;;;;;;;;18.98;48.48;92839.34;5130326;28;20329;-84
2021/05/18 10:46:02;;;;;;;;;;;;;;;19.20;50.33;92828.53;5129717;28;19919;-85
2021/05/18 10:51:33;;;;;;;;;;;;;;;19.76;51.33;92834.31;5104651;28;19981;-83
2021/05/18 10:54:14;;;;;;;;;;;;;;;19.81;48.84;92833.47;5113099;28;19931;-84
2021/05/18 10:56:55;;;;;;;;;;;;;;;19.75;47.99;92835.34;5107280;28;19924;-87
2021/05/18 10:59:22;;;;;;;;;;;;;;;19.59;43.84;92834.72;5061017;28;19924;-83
2021/05/18 11:01:48;;;;;;;;;;;;;;;19.83;49.66;92833.97;5113474;28;19949;-83
2021/05/18 11:04:15;;;;;;;;;;;;;;;20.05;46.94;92840.56;5113006;28;20379;-82
2021/05/18 11:06:49;;;;;;;;;;;;;;;18.78;49.16;92850.66;5112623;28;19919;-82
2021/05/18 11:09:17;;;;;;;;;;;;;;;17.95;52.26;92856.19;5112911;28;19924;-83
2021/05/18 11:11:44;;;;;;;;;;;;;;;17.73;53.04;92847.66;5112550;28;19920;-82
2021/05/18 11:14:10;;;;;;;;;;;;;;;17.53;54.10;92845.88;5113026;28;19931;-82
2021/05/18 11:16:37;;;;;;;;;;;;;;;17.42;53.61;92850.31;5112309;28;19926;-82
2021/05/18 11:19:08;;;;;;;;;;;;;;;17.96;53.26;92855.91;5112327;28;19923;-82
2021/05/18 11:21:37;;;;;;;;;;;;;;;18.49;50.89;92843.53;5112185;28;19924;-83
2021/05/18 11:24:10;;;;;;;;;;;;;;;19.05;48.96;92847.66;5112947;28;20298;-83
2021/05/18 11:26:46;;;;;;;;;;;;;;;19.31;48.53;92844.84;5112566;28;19919;-82
2021/05/18 11:29:12;;;;;;;;;;;;;;;18.68;46.15;92859.31;5112941;28;19919;-83
2021/05/18 11:31:39;;;;;;;;;;;;;;;18.12;46.37;92854.09;5111535;27;20374;-85
2021/05/18 11:34:05;;;;;;;;;;;;;;;18.35;49.52;92859.72;5111415;27;19920;-83
2021/05/18 11:36:34;;;;;;;;;;;;;;;18.16;47.97;92862.13;5112967;28;20314;-84
2021/05/18 11:39:06;;;;;;;;;;;;;;;17.60;50.26;92854.16;5129598;27;19923;-83
2021/05/18 11:41:34;;;;;;;;;;;;;;;17.66;50.73;92862.75;5133425;27;19930;-82
2021/05/18 11:44:00;;;;;;;;;;;;;;;17.75;48.44;92853.38;5133210;27;19923;-84
2021/05/18 11:46:27;;;;;;;;;;;;;;;18.08;51.57;92850.47;5127826;27;20366;-85
2021/05/18 11:48:55;;;;;;;;;;;;;;;18.61;52.04;92841.38;5091860;28;19924;-82
2021/05/18 11:51:21;;;;;;;;;;;;;;;19.12;49.13;92838.75;5092101;28;20361;-84
2021/05/18 11:53:48;;;;;;;;;;;;;;;19.20;48.00;92844.16;5093607;28;20367;-82
2021/05/18 11:56:15;;;;;;;;;;;;;;;19.54;44.09;92847.81;5091975;28;19924;-84
2021/05/18 11:58:41;;;;;;;;;;;;;;;19.88;44.06;92841.75;5091427;28;20429;-86
2021/05/18 12:01:07;;;;;;;;;;;;;;;20.06;44.62;92842.13;5092075;28;19927;-84
2021/05/18 12:03:35;;;;;;;;;;;;;;;18.32;42.63;92843.88;5091048;28;19924;-85
2021/05/18 12:06:03;;;;;;;;;;;;;;;18.86;44.96;92838.91;5091569;28;20371;-82
2021/05/18 12:08:30;;;;;;;;;;;;;;;19.16;43.16;92835.34;5091635;28;19974;-84
2021/05/18 12:11:10;;;;;;;;;;;;;;;19.22;43.01;92834.25;5091889;28;19927;-85
2021/05/18 12:13:36;;;;;;;;;;;;;;;19.26;40.71;92834.50;5091789;28;19931;-83
2021/05/18 12:16:03;;;;;;;;;;;;;;;19.42;39.70;92834.34;5091669;28;19920;-82
2021/05/18 12:18:31;;;;;;;;;;;;;;;19.54;38.64;92815.75;5091529;28;19965;-84
2021/05/18 12:21:00;;;;;;;;;;;;;;;19.84;41.31;92814.69;5091403;28;19931;-83
2021/05/18 12:23:27;;;;;;;;;;;;;;;20.09;39.50;92812.88;5091708;28;20531;-83
2021/05/18 12:26:07;;;;;;;;;;;;;;;19.96;39.30;92810.91;5091527;28;20371;-81
2021/05/18 12:28:33;;;;;;;;;;;;;;;20.03;39.74;92809.56;5092577;28;19932;-83
2021/05/18 12:31:00;;;;;;;;;;;;;;;20.34;38.38;92811.00;5115320;27;19924;-86
2021/05/18 12:33:36;;;;;;;;;;;;;;;20.67;40.37;92816.31;5111072;28;19959;-82
2021/05/18 12:36:03;;;;;;;;;;;;;;;20.59;40.27;92814.34;5121144;27;19923;-83
2021/05/18 12:38:30;;;;;;;;;;;;;;;20.48;40.45;92815.53;5109598;28;19924;-83
2021/05/18 12:41:18;;;;;;;;;;;;;;;20.34;36.66;92818.06;5109412;28;19930;-84
2021/05/18 12:43:44;;;;;;;;;;;;;;;19.69;36.36;92815.63;5111569;28;19966;-84
2021/05/18 12:46:15;;;;;;;;;;;;;;;19.38;37.84;92813.28;5110742;28;19919;-83
2021/05/18 12:48:44;;;;;;;;;;;;;;;19.42;38.99;92809.09;5111161;28;20010;-84
2021/05/18 12:51:17;;;;;;;;;;;;;;;19.35;37.03;92813.84;5111238;28;19920;-83
2021/05/18 12:53:44;;;;;;;;;;;;;;;19.60;40.23;92807.63;5110914;28;20270;-83
2021/05/18 12:56:13;;;;;;;;;;;;;;;19.94;37.76;92811.19;5109782;28;20271;-82
2021/05/18 12:58:39;;;;;;;;;;;;;;;20.08;38.87;92807.94;5110508;28;19924;-82
2021/05/18 13:01:06;;;;;;;;;;;;;;;20.01;35.84;92805.66;5115950;28;19919;-82
2021/05/18 13:03:32;;;;;;;;;;;;;;;20.10;36.69;92800.63;5124096;28;20125;-82
2021/05/18 13:05:58;;;;;;;;;;;;;;;20.20;36.39;92821.34;5116149;28;19935;-83
2021/05/18 13:08:25;;;;;;;;;;;;;;;20.10;39.06;92817.03;5110773;28;19920;-83
2021/05/18 13:11:06;;;;;;;;;;;;;;;20.08;34.06;92807.94;5110994;28;19924;-83
2021/05/18 13:13:44;;;;;;;;;;;;;;;20.09;34.78;92807.66;5111040;28;19924;-83
2021/05/18 13:16:11;;;;;;;;;;;;;;;19.80;35.85;92815.53;5110790;28;19934;-83
2021/05/18 13:18:38;;;;;;;;;;;;;;;19.36;37.17;92815.41;5110901;28;19961;-82
2021/05/18 13:21:05;;;;;;;;;;;;;;;19.32;37.50;92819.59;5111006;28;19924;-83
2021/05/18 13:23:35;;;;;;;;;;;;;;;19.39;36.89;92817.44;5109984;28;19959;-83
2021/05/18 13:28:46;;;;;;;;;;;;;;;19.79;36.98;92804.31;5110650;28;20295;-85
2021/05/18 13:31:12;;;;;;;;;;;;;;;19.96;37.31;92803.91;5110000;28;19923;-84
2021/05/18 13:33:39;;;;;;;;;;;;;;;20.15;37.41;92813.59;5110430;28;20038;-83
2021/05/18 13:36:05;;;;;;;;;;;;;;;19.68;38.42;92814.06;5110419;28;19930;-83
2021/05/18 13:38:33;;;;;;;;;;;;;;;18.85;40.27;92826.94;5110594;28;20001;-82
2021/05/18 13:40:59;;;;;;;;;;;;;;;18.54;40.61;92831.28;5110310;28;19923;-82
2021/05/18 13:43:26;;;;;;;;;;;;;;;18.50;42.74;92832.88;5110199;28;19919;-82
2021/05/18 13:45:53;;;;;;;;;;;;;;;18.21;40.35;92835.34;5110205;28;20324;-82
2021/05/18 13:48:20;;;;;;;;;;;;;;;18.31;42.58;92827.50;5114899;27;20271;-81
2021/05/18 13:50:46;;;;;;;;;;;;;;;18.40;42.32;92823.31;5104978;28;19923;-82
2021/05/18 13:53:13;;;;;;;;;;;;;;;18.39;40.90;92821.75;5110033;28;19923;-81
2021/05/18 13:55:39;;;;;;;;;;;;;;;18.38;40.42;92819.41;5109462;28;19959;-82
2021/05/18 13:58:05;;;;;;;;;;;;;;;18.83;40.63;92809.00;5110356;28;19944;-82
2021/05/18 14:00:32;;;;;;;;;;;;;;;19.05;41.63;92819.03;5110195;28;19919;-81
2021/05/18 14:02:58;;;;;;;;;;;;;;;18.51;38.75;92825.84;5110198;28;20303;-80
2021/05/18 14:05:24;;;;;;;;;;;;;;;18.01;40.04;92823.97;5109684;28;19920;-81
2021/05/18 14:10:57;;;;;;;;;;;;;;;18.54;42.42;92830.50;5102854;28;19930;-81
2021/05/18 14:13:23;;;;;;;;;;;;;;;18.37;41.67;92833.47;5109956;28;19920;-81
2021/05/18 14:15:50;;;;;;;;;;;;;;;18.60;41.78;92831.28;5110218;28;19923;-81
2021/05/18 14:18:16;;;;;;;;;;;;;;;18.79;39.83;92834.78;5106826;28;19920;-82
2021/05/18 14:20:43;;;;;;;;;;;;;;;19.26;41.79;92825.91;5087666;28;19924;-81
2021/05/18 14:23:09;;;;;;;;;;;;;;;19.62;40.33;92823.75;5090286;28;19949;-82
2021/05/18 14:25:35;;;;;;;;;;;;;;;19.52;38.09;92826.44;5109747;28;19927;-82
2021/05/18 14:28:01;;;;;;;;;;;;;;;19.35;38.88;92819.81;5113247;28;19924;-82
2021/05/18 14:30:27;;;;;;;;;;;;;;;19.25;40.06;92825.13;5113864;28;19920;-82
2021/05/18 14:32:54;;;;;;;;;;;;;;;19.00;40.30;92818.25;5114141;28;19964;-81
2021/05/18 14:35:21;;;;;;;;;;;;;;;19.05;39.50;92824.25;5113739;28;19927;-82
2021/05/18 14:37:51;;;;;;;;;;;;;;;19.34;39.72;92818.28;5113964;28;19939;-83
2021/05/18 14:40:38;;;;;;;;;;;;;;;18.98;39.70;92812.56;5113757;28;20317;-83
2021/05/18 14:43:16;;;;;;;;;;;;;;;19.42;41.06;92818.72;5113726;28;19926;-82
2021/05/18 14:45:43;;;;;;;;;;;;;;;19.63;37.52;92817.50;5113328;28;20571;-82
2021/05/18 14:48:26;;;;;;;;;;;;;;;19.20;37.84;92815.53;5113933;28;19972;-82
2021/05/18 14:53:57;;;;;;;;;;;;;;;19.44;37.80;92820.00;5113596;28;20042;-83
2021/05/18 14:56:23;;;;;;;;;;;;;;;19.63;37.24;92814.88;5113846;28;19949;-83
2021/05/18 14:58:49;;;;;;;;;;;;;;;19.20;38.19;92812.91;5113871;28;19924;-82
2021/05/18 15:01:15;;;;;;;;;;;;;;;19.19;38.28;92806.16;5113262;28;19919;-82
2021/05/18 15:03:42;;;;;;;;;;;;;;;19.09;38.82;92812.25;5115050;28;20294;-82
2021/05/18 15:06:08;;;;;;;;;;;;;;;18.43;41.36;92819.41;5113251;28;19939;-82
2021/05/18 15:08:37;;;;;;;;;;;;;;;18.52;38.34;92822.19;5113127;28;19920;-82
2021/05/18 15:11:04;;;;;;;;;;;;;;;18.58;39.75;92828.94;5113142;28;19962;-81
2021/05/18 15:13:31;;;;;;;;;;;;;;;18.77;37.84;92825.69;5113030;28;19933;-81
2021/05/18 15:15:57;;;;;;;;;;;;;;;18.96;39.92;92815.41;5112933;28;20011;-82
2021/05/18 15:18:23;;;;;;;;;;;;;;;19.03;37.66;92823.72;5113200;28;19919;-81
2021/05/18 15:20:53;;;;;;;;;;;;;;;19.20;39.06;92815.53;5112710;28;19927;-83
2021/05/18 15:23:19;;;;;;;;;;;;;;;19.03;37.51;92820.31;5112836;28;20427;-79
2021/05/18 15:25:45;;;;;;;;;;;;;;;18.55;38.85;92817.25;5112634;28;20367;-79
2021/05/18 15:28:11;;;;;;;;;;;;;;;18.61;40.17;92822.41;5112852;28;20403;-79
2021/05/18 15:30:37;;;;;;;;;;;;;;;18.49;38.81;92814.94;5112703;28;19946;-79
2021/05/18 15:33:03;;;;;;;;;;;;;;;18.47;40.89;92812.59;5112429;28;19919;-79
2021/05/18 15:35:29;;;;;;;;;;;;;;;18.18;39.28;92810.66;5112259;28;19919;-79
2021/05/18 15:37:56;;;;;;;;;;;;;;;18.34;41.67;92808.78;5111463;28;19973;-79
2021/05/18 15:40:22;;;;;;;;;;;;;;;18.58;41.18;92809.94;5109250;28;19923;-79
2021/05/18 15:42:48;;;;;;;;;;;;;;;18.75;39.60;92794.72;5112553;28;19931;-79
2021/05/18 15:45:15;;;;;;;;;;;;;;;18.74;41.38;92795.78;5111633;28;19930;-79
2021/05/18 15:47:41;;;;;;;;;;;;;;;18.86;40.61;92799.88;5112672;28;19919;-79
2021/05/18 15:50:08;;;;;;;;;;;;;;;18.91;39.55;92803.22;5112290;28;19965;-79
2021/05/18 15:52:50;;;;;;;;;;;;;;;18.96;40.74;92799.81;5112309;28;19919;-79
2021/05/18 15:55:17;;;;;;;;;;;;;;;19.04;41.55;92791.47;5112987;28;19930;-79
2021/05/18 15:57:43;;;;;;;;;;;;;;;19.09;41.47;92798.44;5113030;28;19927;-78
2021/05/18 16:00:09;;;;;;;;;;;;;;;18.83;39.72;92803.78;5113067;28;19919;-79
2021/05/18 16:02:35;;;;;;;;;;;;;;;18.46;39.99;92805.06;5112603;28;19923;-79
2021/05/18 16:05:01;;;;;;;;;;;;;;;18.08;40.90;92808.09;5111593;28;19969;-79
2021/05/18 16:07:28;;;;;;;;;;;;;;;17.88;42.00;92804.50;5112322;28;19927;-78
2021/05/18 16:09:54;;;;;;;;;;;;;;;18.05;42.00;92806.78;5112020;28;20359;-79
2021/05/18 16:12:21;;;;;;;;;;;;;;;18.21;41.82;92807.53;5112190;28;19920;-79
2021/05/18 16:14:48;;;;;;;;;;;;;;;17.99;40.78;92810.44;5112214;28;19920;-79
2021/05/18 16:17:16;;;;;;;;;;;;;;;18.19;43.59;92803.63;5112043;28;19927;-79
2021/05/18 16:19:42;;;;;;;;;;;;;;;18.30;41.43;92805.91;5111720;28;19919;-80
2021/05/18 16:22:08;;;;;;;;;;;;;;;18.13;41.66;92806.25;5111337;28;19933;-79
2021/05/18 16:24:34;;;;;;;;;;;;;;;18.22;42.28;92813.50;5111884;28;19920;-79
2021/05/18 16:27:01;;;;;;;;;;;;;;;17.99;41.05;92806.03;5112069;28;19919;-79
2021/05/18 16:32:33;;;;;;;;;;;;;;;18.09;41.75;92805.22;5111948;28;19928;-84
2021/05/18 16:34:59;;;;;;;;;;;;;;;17.97;43.52;92794.34;5111894;28;20426;-83
2021/05/18 16:37:25;;;;;;;;;;;;;;;18.09;44.85;92796.66;5112503;28;19945;-83
2021/05/18 16:39:51;;;;;;;;;;;;;;;18.16;43.23;92802.34;5112338;28;19980;-83
2021/05/18 16:42:17;;;;;;;;;;;;;;;18.08;42.71;92797.69;5112165;28;20332;-83
2021/05/18 16:44:43;;;;;;;;;;;;;;;18.20;44.69;92800.00;5111477;28;20329;-83
2021/05/18 16:47:09;;;;;;;;;;;;;;;18.14;43.21;92796.63;5112413;28;19920;-83
2021/05/18 16:49:36;;;;;;;;;;;;;;;18.01;42.80;92803.16;5111856;28;19927;-83
2021/05/18 16:52:05;;;;;;;;;;;;;;;18.00;43.51;92799.78;5111931;28;19924;-83
2021/05/18 16:54:31;;;;;;;;;;;;;;;17.99;41.24;92798.22;5108585;28;19931;-82
2021/05/18 16:56:57;;;;;;;;;;;;;;;17.84;43.84;92790.47;5109753;28;19919;-83
2021/05/18 16:59:23;;;;;;;;;;;;;;;17.84;41.74;92801.66;5111771;28;20407;-82
2021/05/18 17:01:50;;;;;;;;;;;;;;;17.95;43.58;92797.19;5112131;28;19920;-81
2021/05/18 17:04:17;;;;;;;;;;;;;;;18.09;44.51;92794.84;5123539;28;19987;-82
2021/05/18 17:06:44;;;;;;;;;;;;;;;18.01;42.88;92798.72;5122458;28;19926;-84
2021/05/18 17:09:10;;;;;;;;;;;;;;;17.81;41.99;92799.59;5115102;28;20346;-81